Time;durP1;ratioP1;P1;durP2;ratioP2;P2;SDS_P1;SDS_P2;PMS_P1;PMS_P2;Temp;Humidity;BMP_temperature;BMP_pressure;BME280_temperature;BME280_humidity;BME280_pressure;Samples;Min_cycle;Max_cycle;Signal;HPM_P1;HPM_P2
2023/04/28 00:02:20;;;;;;;;;;;8.50;99.90;;;;;;5056707;28;19971;-64
2023/04/28 00:04:47;;;;;;;;;;;8.50;99.90;;;;;;5059141;28;19929;-65
2023/04/28 00:07:19;;;;;;;;;;;8.50;99.90;;;;;;5044343;28;19925;-65
2023/04/28 00:09:46;;;;;;;;;;;8.50;99.90;;;;;;5064246;28;19925;-66
2023/04/28 00:12:18;;;;;;;;;;;8.50;99.90;;;;;;5061797;28;20320;-64
2023/04/28 00:14:49;;;;;;;;;;;8.50;99.90;;;;;;5048415;28;19924;-64
2023/04/28 00:17:21;;;;;;;;;;;8.50;99.90;;;;;;5037640;28;19932;-65
2023/04/28 00:19:53;;;;;;;;;;;8.50;99.90;;;;;;5055851;28;19925;-64
2023/04/28 00:22:24;;;;;;;;;;;8.50;99.90;;;;;;5054222;28;20371;-64
2023/04/28 00:24:51;;;;;;;;;;;8.50;99.90;;;;;;5055898;28;19948;-65
2023/04/28 00:27:23;;;;;;;;;;;8.50;99.90;;;;;;5062454;28;20011;-64
2023/04/28 00:29:55;;;;;;;;;;;8.50;99.90;;;;;;5064016;28;19929;-64
2023/04/28 00:32:26;;;;;;;;;;;8.40;99.90;;;;;;5062526;28;20023;-65
2023/04/28 00:34:58;;;;;;;;;;;8.40;99.90;;;;;;5062754;28;19933;-65
2023/04/28 00:37:34;;;;;;;;;;;8.40;99.90;;;;;;5042534;28;19932;-65
2023/04/28 00:40:06;;;;;;;;;;;8.50;99.90;;;;;;5040809;28;19924;-65
2023/04/28 00:42:38;;;;;;;;;;;8.50;99.90;;;;;;5049623;28;20451;-65
2023/04/28 00:45:10;;;;;;;;;;;8.50;99.90;;;;;;5031974;28;19933;-64
2023/04/28 00:47:42;;;;;;;;;;;8.50;99.90;;;;;;5041547;28;19983;-65
2023/04/28 00:50:15;;;;;;;;;;;8.50;99.90;;;;;;5039690;28;20362;-64
2023/04/28 00:52:48;;;;;;;;;;;8.50;99.90;;;;;;5035659;28;19932;-65
2023/04/28 00:55:20;;;;;;;;;;;8.50;99.90;;;;;;5051696;28;19933;-64
2023/04/28 00:57:55;;;;;;;;;;;8.50;99.90;;;;;;5030778;28;19932;-64
2023/04/28 01:00:26;;;;;;;;;;;8.50;99.90;;;;;;5042224;28;19955;-64
2023/04/28 01:02:58;;;;;;;;;;;8.50;99.90;;;;;;5035601;28;19982;-65
2023/04/28 01:05:33;;;;;;;;;;;8.50;99.90;;;;;;5038437;28;19940;-65
2023/04/28 01:08:05;;;;;;;;;;;8.50;99.90;;;;;;5052415;28;19925;-65
2023/04/28 01:10:42;;;;;;;;;;;8.50;99.90;;;;;;5037676;28;19932;-64
2023/04/28 01:13:29;;;;;;;;;;;8.50;99.90;;;;;;5053218;28;19932;-64
2023/04/28 01:16:00;;;;;;;;;;;8.50;99.90;;;;;;5061574;28;19944;-65
2023/04/28 01:18:33;;;;;;;;;;;8.50;99.90;;;;;;5042612;28;19928;-65
2023/04/28 01:21:05;;;;;;;;;;;8.60;99.90;;;;;;5043382;28;19928;-65
2023/04/28 01:23:37;;;;;;;;;;;8.60;99.90;;;;;;5044846;28;19928;-64
2023/04/28 01:26:08;;;;;;;;;;;8.60;99.90;;;;;;5049562;28;19936;-64
2023/04/28 01:28:40;;;;;;;;;;;8.60;99.90;;;;;;5055140;28;19933;-65
2023/04/28 01:31:12;;;;;;;;;;;8.50;99.90;;;;;;5049065;28;19925;-65
2023/04/28 01:33:44;;;;;;;;;;;8.40;99.90;;;;;;5036810;28;19932;-65
2023/04/28 01:36:16;;;;;;;;;;;8.40;99.90;;;;;;5042738;28;19960;-64
2023/04/28 01:38:47;;;;;;;;;;;8.40;99.90;;;;;;5050608;28;19956;-65
2023/04/28 01:41:19;;;;;;;;;;;8.40;99.90;;;;;;5050536;28;19970;-64
2023/04/28 01:43:46;;;;;;;;;;;8.40;99.90;;;;;;5050234;28;20364;-64
2023/04/28 01:46:18;;;;;;;;;;;8.40;99.90;;;;;;5058805;28;20006;-64
2023/04/28 01:48:49;;;;;;;;;;;8.50;99.90;;;;;;5041490;28;20347;-64
2023/04/28 01:51:21;;;;;;;;;;;8.50;99.90;;;;;;5037418;28;19924;-64
2023/04/28 01:53:53;;;;;;;;;;;8.50;99.90;;;;;;5037399;28;20416;-64
2023/04/28 01:56:25;;;;;;;;;;;8.50;99.90;;;;;;5036016;28;19928;-65
2023/04/28 01:58:57;;;;;;;;;;;8.50;99.90;;;;;;5051521;28;19935;-65
2023/04/28 02:01:29;;;;;;;;;;;8.60;99.90;;;;;;5036795;28;19924;-64
2023/04/28 02:04:01;;;;;;;;;;;8.60;99.90;;;;;;5045857;28;19936;-65
2023/04/28 02:06:35;;;;;;;;;;;8.60;99.90;;;;;;5032118;28;19925;-64
2023/04/28 02:09:02;;;;;;;;;;;8.50;99.90;;;;;;5040771;28;19935;-64
2023/04/28 02:11:28;;;;;;;;;;;8.50;99.90;;;;;;5039978;28;19924;-65
2023/04/28 02:14:00;;;;;;;;;;;8.40;99.90;;;;;;5051244;28;19937;-65
2023/04/28 02:16:32;;;;;;;;;;;8.40;99.90;;;;;;5050414;28;19929;-64
2023/04/28 02:19:04;;;;;;;;;;;8.40;99.90;;;;;;5034435;28;20319;-65
2023/04/28 02:21:35;;;;;;;;;;;8.40;99.90;;;;;;5061755;28;19954;-64
2023/04/28 02:24:07;;;;;;;;;;;8.40;99.90;;;;;;5031228;28;19929;-65
2023/04/28 02:26:38;;;;;;;;;;;8.40;99.90;;;;;;5034576;28;20746;-65
2023/04/28 02:29:10;;;;;;;;;;;8.40;99.90;;;;;;5049992;28;19928;-65
2023/04/28 02:31:42;;;;;;;;;;;8.40;99.90;;;;;;5058712;28;19925;-64
2023/04/28 02:34:13;;;;;;;;;;;8.50;99.90;;;;;;5039231;28;20023;-65
2023/04/28 02:36:45;;;;;;;;;;;8.40;99.90;;;;;;5053886;28;19932;-65
2023/04/28 02:39:17;;;;;;;;;;;8.50;99.90;;;;;;5034683;28;19975;-65
2023/04/28 02:41:48;;;;;;;;;;;8.50;99.90;;;;;;5053247;28;20338;-64
2023/04/28 02:44:20;;;;;;;;;;;8.60;99.90;;;;;;5051787;28;20472;-64
2023/04/28 02:46:47;;;;;;;;;;;8.60;99.90;;;;;;5047291;28;19931;-65
2023/04/28 02:49:18;;;;;;;;;;;8.60;99.90;;;;;;5050576;28;19928;-65
2023/04/28 02:51:50;;;;;;;;;;;8.60;99.90;;;;;;5049453;28;20421;-65
2023/04/28 02:54:28;;;;;;;;;;;8.60;99.90;;;;;;5041373;28;19928;-65
2023/04/28 02:57:00;;;;;;;;;;;8.60;99.90;;;;;;5033498;28;19967;-64
2023/04/28 02:59:32;;;;;;;;;;;8.60;99.90;;;;;;5051980;28;20308;-64
2023/04/28 03:02:04;;;;;;;;;;;8.70;99.90;;;;;;5037805;28;19929;-64
2023/04/28 03:04:36;;;;;;;;;;;8.70;99.90;;;;;;5038315;28;20397;-65
2023/04/28 03:07:07;;;;;;;;;;;8.70;99.90;;;;;;5064901;28;19929;-65
2023/04/28 03:09:39;;;;;;;;;;;8.70;99.90;;;;;;5035023;28;19935;-64
2023/04/28 03:12:10;;;;;;;;;;;8.70;99.90;;;;;;5035257;28;20314;-65
2023/04/28 03:14:45;;;;;;;;;;;8.70;99.90;;;;;;5050198;28;19935;-65
2023/04/28 03:17:16;;;;;;;;;;;8.80;99.90;;;;;;5043807;28;19925;-65
2023/04/28 03:19:48;;;;;;;;;;;8.80;99.90;;;;;;5045131;28;19924;-65
2023/04/28 03:22:15;;;;;;;;;;;8.70;99.90;;;;;;5050366;28;20312;-64
2023/04/28 03:24:47;;;;;;;;;;;8.60;99.90;;;;;;5036849;28;19924;-65
2023/04/28 03:27:19;;;;;;;;;;;8.60;99.90;;;;;;5033742;28;19929;-64
2023/04/28 03:29:52;;;;;;;;;;;8.60;99.90;;;;;;5035396;28;20009;-65
2023/04/28 03:32:25;;;;;;;;;;;8.60;99.90;;;;;;5044193;28;20312;-64
2023/04/28 03:34:56;;;;;;;;;;;8.60;99.90;;;;;;5045323;28;19929;-64
2023/04/28 03:37:28;;;;;;;;;;;8.60;99.90;;;;;;5052430;28;19932;-65
2023/04/28 03:40:00;;;;;;;;;;;8.60;99.90;;;;;;5035223;28;19924;-65
2023/04/28 03:42:48;;;;;;;;;;;8.60;99.90;;;;;;5044795;28;20331;-65
2023/04/28 03:45:33;;;;;;;;;;;8.50;99.90;;;;;;5051744;28;19931;-65
2023/04/28 03:48:00;;;;;;;;;;;8.50;99.90;;;;;;5053946;28;20338;-65
2023/04/28 03:50:32;;;;;;;;;;;8.50;99.90;;;;;;5045887;28;19978;-64
2023/04/28 03:53:04;;;;;;;;;;;8.50;99.90;;;;;;5041962;28;19924;-65
2023/04/28 03:55:36;;;;;;;;;;;8.60;99.90;;;;;;5046152;28;19924;-64
2023/04/28 03:58:08;;;;;;;;;;;8.60;99.90;;;;;;5044044;28;19935;-65
2023/04/28 04:00:39;;;;;;;;;;;8.60;99.90;;;;;;5050750;28;19932;-65
2023/04/28 04:03:11;;;;;;;;;;;8.60;99.90;;;;;;5049886;28;19931;-65
2023/04/28 04:05:43;;;;;;;;;;;8.70;99.90;;;;;;5067242;28;19924;-65
2023/04/28 04:08:15;;;;;;;;;;;8.70;99.90;;;;;;5054888;28;19924;-64
2023/04/28 04:10:47;;;;;;;;;;;8.80;99.90;;;;;;5038431;28;19932;-64
2023/04/28 04:13:19;;;;;;;;;;;8.90;99.90;;;;;;5029825;28;19935;-64
2023/04/28 04:15:51;;;;;;;;;;;8.90;99.90;;;;;;5042216;28;19932;-64
2023/04/28 04:18:23;;;;;;;;;;;8.90;99.90;;;;;;5045002;28;20290;-64
2023/04/28 04:21:21;;;;;;;;;;;8.90;99.90;;;;;;5047045;28;20026;-64
2023/04/28 04:23:54;;;;;;;;;;;8.90;99.90;;;;;;5043351;28;20003;-64
2023/04/28 04:26:26;;;;;;;;;;;8.90;99.90;;;;;;5051320;28;19932;-67
2023/04/28 04:28:59;;;;;;;;;;;8.90;99.90;;;;;;5049295;28;19924;-71
2023/04/28 04:31:31;;;;;;;;;;;8.90;99.90;;;;;;5052676;28;19929;-64
2023/04/28 04:34:03;;;;;;;;;;;8.90;99.90;;;;;;5046764;28;20416;-64
2023/04/28 04:36:35;;;;;;;;;;;8.80;99.90;;;;;;5048741;28;20027;-64
2023/04/28 04:39:05;;;;;;;;;;;8.80;99.90;;;;;;5034890;28;19935;-64
2023/04/28 04:41:31;;;;;;;;;;;8.90;99.90;;;;;;5048048;28;19939;-65
2023/04/28 04:44:23;;;;;;;;;;;8.80;99.90;;;;;;5055017;28;19925;-64
2023/04/28 04:46:56;;;;;;;;;;;8.90;99.90;;;;;;5039119;28;19924;-64
2023/04/28 04:49:29;;;;;;;;;;;8.80;99.90;;;;;;5051958;28;19924;-64
2023/04/28 04:52:02;;;;;;;;;;;8.80;99.90;;;;;;5034703;28;20011;-64
2023/04/28 04:54:34;;;;;;;;;;;8.90;99.90;;;;;;5045743;28;19924;-64
2023/04/28 04:57:06;;;;;;;;;;;8.90;99.90;;;;;;5047282;28;20074;-64
2023/04/28 04:59:58;;;;;;;;;;;8.90;99.90;;;;;;5042623;28;20008;-64
2023/04/28 05:02:30;;;;;;;;;;;8.90;99.90;;;;;;5057837;28;19931;-64
2023/04/28 05:04:57;;;;;;;;;;;8.90;99.90;;;;;;5040691;28;19975;-64
2023/04/28 05:07:29;;;;;;;;;;;8.90;99.90;;;;;;5040055;28;19931;-65
2023/04/28 05:10:01;;;;;;;;;;;9.10;99.90;;;;;;5045815;28;19925;-64
2023/04/28 05:12:33;;;;;;;;;;;9.20;99.90;;;;;;5049123;28;19924;-64
2023/04/28 05:15:05;;;;;;;;;;;9.20;99.90;;;;;;5067257;28;19974;-64
2023/04/28 05:17:42;;;;;;;;;;;9.20;99.90;;;;;;5050973;28;19960;-64
2023/04/28 05:20:14;;;;;;;;;;;9.30;99.90;;;;;;5051609;28;19928;-64
2023/04/28 05:22:46;;;;;;;;;;;9.30;99.90;;;;;;5040201;28;19975;-64
2023/04/28 05:25:18;;;;;;;;;;;9.30;99.90;;;;;;5041864;28;19933;-64
2023/04/28 05:27:50;;;;;;;;;;;9.30;99.90;;;;;;5043351;28;19955;-64
2023/04/28 05:30:21;;;;;;;;;;;9.40;99.90;;;;;;5046188;28;19929;-64
2023/04/28 05:32:53;;;;;;;;;;;9.50;99.90;;;;;;5051129;28;19940;-64
2023/04/28 05:35:25;;;;;;;;;;;9.50;99.90;;;;;;5045726;28;20281;-64
2023/04/28 05:37:58;;;;;;;;;;;9.50;99.90;;;;;;5049873;28;19931;-64
2023/04/28 05:40:29;;;;;;;;;;;9.60;99.90;;;;;;5048121;28;20007;-65
2023/04/28 05:43:01;;;;;;;;;;;9.60;99.90;;;;;;5046080;28;19928;-65
2023/04/28 05:45:33;;;;;;;;;;;9.60;99.90;;;;;;5040229;28;20423;-65
2023/04/28 05:48:05;;;;;;;;;;;9.60;99.90;;;;;;5041142;28;19925;-65
2023/04/28 05:50:32;;;;;;;;;;;9.70;99.90;;;;;;5042528;28;19964;-65
2023/04/28 05:53:04;;;;;;;;;;;9.70;99.90;;;;;;5034844;28;19929;-64
2023/04/28 05:55:36;;;;;;;;;;;9.70;99.90;;;;;;5045133;28;20011;-65
2023/04/28 05:58:08;;;;;;;;;;;9.80;99.90;;;;;;5059252;28;20403;-65
2023/04/28 06:00:40;;;;;;;;;;;9.80;99.90;;;;;;5050956;28;19935;-65
2023/04/28 06:03:14;;;;;;;;;;;9.80;99.90;;;;;;5029597;28;19930;-65
2023/04/28 06:05:46;;;;;;;;;;;9.80;99.90;;;;;;5044367;28;19932;-65
2023/04/28 06:08:18;;;;;;;;;;;9.80;99.90;;;;;;5044551;28;19928;-65
2023/04/28 06:10:49;;;;;;;;;;;9.80;99.90;;;;;;5036686;28;19925;-65
2023/04/28 06:13:21;;;;;;;;;;;9.90;99.90;;;;;;5033493;28;20424;-65
2023/04/28 06:15:53;;;;;;;;;;;9.90;99.90;;;;;;5028912;28;19924;-65
2023/04/28 06:18:25;;;;;;;;;;;10.00;99.90;;;;;;5049382;28;19929;-65
2023/04/28 06:21:00;;;;;;;;;;;10.00;99.90;;;;;;5051143;28;19925;-65
2023/04/28 06:23:31;;;;;;;;;;;10.10;99.90;;;;;;5044335;28;20028;-65
2023/04/28 06:26:03;;;;;;;;;;;10.20;99.90;;;;;;5046162;28;20453;-65
2023/04/28 06:28:37;;;;;;;;;;;10.30;99.90;;;;;;5045112;28;19947;-65
2023/04/28 06:31:09;;;;;;;;;;;10.30;99.90;;;;;;5033497;28;19925;-65
2023/04/28 06:33:36;;;;;;;;;;;10.40;99.90;;;;;;5047611;28;19986;-65
2023/04/28 06:36:07;;;;;;;;;;;10.50;99.90;;;;;;5056970;28;19928;-65
2023/04/28 06:38:41;;;;;;;;;;;10.60;99.90;;;;;;5040609;28;19932;-64
2023/04/28 06:41:14;;;;;;;;;;;10.60;99.90;;;;;;5061448;28;19925;-65
2023/04/28 06:43:49;;;;;;;;;;;10.70;99.90;;;;;;5032193;28;19983;-67
2023/04/28 06:46:26;;;;;;;;;;;10.70;99.90;;;;;;5038186;28;20373;-65
2023/04/28 06:48:57;;;;;;;;;;;10.70;99.90;;;;;;5038561;28;19925;-66
2023/04/28 06:51:31;;;;;;;;;;;10.80;99.90;;;;;;5062455;28;20305;-65
2023/04/28 06:54:03;;;;;;;;;;;10.80;99.90;;;;;;5056578;28;19936;-65
2023/04/28 06:56:35;;;;;;;;;;;10.80;99.90;;;;;;5038503;28;19925;-65
2023/04/28 06:59:07;;;;;;;;;;;10.80;99.90;;;;;;5059350;28;19960;-65
2023/04/28 07:01:38;;;;;;;;;;;10.80;99.90;;;;;;5062055;28;20304;-65
2023/04/28 07:04:10;;;;;;;;;;;10.80;99.90;;;;;;5064407;28;19940;-65
2023/04/28 07:06:37;;;;;;;;;;;10.80;99.90;;;;;;5046548;28;19985;-65
2023/04/28 07:09:08;;;;;;;;;;;10.90;99.90;;;;;;5058459;28;19932;-65
2023/04/28 07:11:35;;;;;;;;;;;10.90;99.90;;;;;;5049270;28;19959;-65
2023/04/28 07:14:07;;;;;;;;;;;10.90;99.90;;;;;;5064886;28;19998;-65
2023/04/28 07:16:34;;;;;;;;;;;10.90;99.90;;;;;;5058829;28;19931;-66
2023/04/28 07:19:06;;;;;;;;;;;10.90;99.90;;;;;;5042521;28;19929;-65
2023/04/28 07:21:38;;;;;;;;;;;11.00;99.90;;;;;;5056395;28;20437;-65
2023/04/28 07:24:09;;;;;;;;;;;11.00;99.90;;;;;;5060878;28;19944;-65
2023/04/28 07:26:41;;;;;;;;;;;11.10;99.90;;;;;;5045730;28;19928;-65
2023/04/28 07:29:14;;;;;;;;;;;11.10;99.90;;;;;;5047742;28;20273;-65
2023/04/28 07:31:45;;;;;;;;;;;11.10;99.90;;;;;;5063431;28;20305;-65
2023/04/28 07:34:17;;;;;;;;;;;11.10;99.90;;;;;;5064518;28;19925;-64
2023/04/28 07:36:49;;;;;;;;;;;11.10;99.90;;;;;;5059388;28;19929;-65
2023/04/28 07:39:20;;;;;;;;;;;11.10;99.90;;;;;;5042518;28;19929;-65
2023/04/28 07:41:52;;;;;;;;;;;11.10;99.90;;;;;;5062690;28;19932;-65
2023/04/28 07:44:24;;;;;;;;;;;11.20;99.90;;;;;;5047800;28;19939;-65
2023/04/28 07:46:52;;;;;;;;;;;11.10;99.90;;;;;;5045735;28;20305;-64
2023/04/28 07:49:23;;;;;;;;;;;11.20;99.90;;;;;;5070026;28;19928;-64
2023/04/28 07:51:53;;;;;;;;;;;11.20;99.90;;;;;;5054906;28;19929;-64
2023/04/28 07:54:25;;;;;;;;;;;11.20;99.90;;;;;;5064505;28;19978;-65
2023/04/28 07:56:57;;;;;;;;;;;11.20;99.90;;;;;;5064884;28;19931;-65
2023/04/28 07:59:28;;;;;;;;;;;11.20;99.90;;;;;;5060908;28;19935;-65
2023/04/28 08:02:00;;;;;;;;;;;11.30;99.90;;;;;;5050150;28;19924;-65
2023/04/28 08:04:33;;;;;;;;;;;11.30;99.90;;;;;;5046398;28;20308;-69
2023/04/28 08:07:05;;;;;;;;;;;11.30;99.90;;;;;;5064028;28;20400;-65
2023/04/28 08:09:38;;;;;;;;;;;11.40;99.90;;;;;;5065457;28;19928;-65
2023/04/28 08:12:10;;;;;;;;;;;11.40;99.90;;;;;;5061907;28;19983;-65
2023/04/28 08:14:37;;;;;;;;;;;11.40;99.90;;;;;;5063995;28;19932;-65
2023/04/28 08:17:09;;;;;;;;;;;11.40;99.90;;;;;;5064579;28;19929;-65
2023/04/28 08:19:40;;;;;;;;;;;11.50;99.90;;;;;;5060376;28;19939;-65
2023/04/28 08:22:12;;;;;;;;;;;11.50;99.90;;;;;;5060567;28;19981;-64
2023/04/28 08:24:44;;;;;;;;;;;11.60;99.90;;;;;;5058250;28;19986;-65
2023/04/28 08:27:16;;;;;;;;;;;11.60;99.90;;;;;;5062515;28;20331;-65
2023/04/28 08:29:47;;;;;;;;;;;11.60;99.90;;;;;;5055650;28;19931;-64
2023/04/28 08:32:19;;;;;;;;;;;11.70;99.90;;;;;;5045057;28;19979;-64
2023/04/28 08:34:53;;;;;;;;;;;11.70;99.90;;;;;;5065240;28;20228;-65
2023/04/28 08:37:28;;;;;;;;;;;11.70;99.90;;;;;;5065624;28;19940;-65
2023/04/28 08:40:08;;;;;;;;;;;11.70;99.90;;;;;;5066051;28;20039;-64
2023/04/28 08:42:40;;;;;;;;;;;11.70;99.90;;;;;;5045153;28;20329;-64
2023/04/28 08:45:13;;;;;;;;;;;11.70;99.90;;;;;;5051081;28;19925;-64
2023/04/28 08:47:46;;;;;;;;;;;11.70;99.90;;;;;;5050673;28;19929;-64
2023/04/28 08:50:21;;;;;;;;;;;11.70;99.90;;;;;;5058701;28;20484;-64
2023/04/28 08:52:54;;;;;;;;;;;11.80;99.90;;;;;;5055288;28;19932;-64
2023/04/28 08:55:26;;;;;;;;;;;11.80;99.90;;;;;;5065228;28;19932;-64
2023/04/28 08:57:57;;;;;;;;;;;11.80;99.90;;;;;;5062162;28;19978;-65
2023/04/28 09:00:29;;;;;;;;;;;11.80;99.90;;;;;;5047900;28;19935;-65
2023/04/28 09:03:01;;;;;;;;;;;11.90;99.90;;;;;;5046993;28;19929;-64
2023/04/28 09:05:33;;;;;;;;;;;11.90;99.90;;;;;;5044301;28;20340;-64
2023/04/28 09:08:05;;;;;;;;;;;11.80;99.90;;;;;;5064879;28;19936;-64
2023/04/28 09:10:37;;;;;;;;;;;11.80;99.90;;;;;;5055441;28;19925;-65
2023/04/28 09:13:08;;;;;;;;;;;11.80;99.90;;;;;;5053665;28;19929;-65
2023/04/28 09:15:40;;;;;;;;;;;11.80;99.90;;;;;;5054867;28;19928;-65
2023/04/28 09:18:13;;;;;;;;;;;11.80;99.90;;;;;;5063905;28;20359;-65
2023/04/28 09:20:45;;;;;;;;;;;11.80;99.90;;;;;;5037752;28;19925;-64
2023/04/28 09:23:18;;;;;;;;;;;11.80;99.90;;;;;;5050124;28;19932;-65
2023/04/28 09:25:59;;;;;;;;;;;11.80;99.90;;;;;;5043629;28;19955;-64
2023/04/28 09:28:31;;;;;;;;;;;11.70;99.90;;;;;;5059883;28;20343;-64
2023/04/28 09:31:03;;;;;;;;;;;11.70;99.90;;;;;;5060599;28;19994;-65
2023/04/28 09:33:35;;;;;;;;;;;11.70;99.90;;;;;;5055088;28;19925;-64
2023/04/28 09:36:06;;;;;;;;;;;11.70;99.90;;;;;;5053808;28;19971;-64
2023/04/28 09:38:42;;;;;;;;;;;11.60;99.90;;;;;;5057335;28;19933;-65
2023/04/28 09:41:15;;;;;;;;;;;11.70;99.90;;;;;;5056597;28;19959;-65
2023/04/28 09:43:46;;;;;;;;;;;11.60;99.90;;;;;;5050547;28;20359;-65
2023/04/28 09:46:27;;;;;;;;;;;11.60;99.90;;;;;;5061736;28;20389;-64
2023/04/28 09:48:59;;;;;;;;;;;11.60;99.90;;;;;;5042530;28;19928;-65
2023/04/28 09:51:31;;;;;;;;;;;11.60;99.90;;;;;;5063969;28;19932;-64
2023/04/28 09:54:03;;;;;;;;;;;11.60;99.90;;;;;;5065984;28;20458;-64
2023/04/28 09:56:37;;;;;;;;;;;11.70;99.90;;;;;;5059676;28;20304;-64
2023/04/28 09:59:13;;;;;;;;;;;11.70;99.90;;;;;;5060784;28;19932;-65
2023/04/28 10:01:45;;;;;;;;;;;11.70;99.90;;;;;;5057600;28;19932;-64
2023/04/28 10:04:17;;;;;;;;;;;11.80;99.90;;;;;;5057698;28;19931;-64
2023/04/28 10:06:49;;;;;;;;;;;11.80;99.90;;;;;;5065382;28;19929;-65
2023/04/28 10:09:16;;;;;;;;;;;11.90;99.90;;;;;;5063549;28;19925;-65
2023/04/28 10:11:48;;;;;;;;;;;12.00;99.90;;;;;;5064017;28;19929;-65
2023/04/28 10:14:20;;;;;;;;;;;12.00;99.90;;;;;;5059364;28;19924;-65
2023/04/28 10:16:53;;;;;;;;;;;12.00;99.90;;;;;;5060554;28;19974;-65
2023/04/28 10:19:25;;;;;;;;;;;12.00;99.90;;;;;;5055003;28;20393;-64
2023/04/28 10:22:08;;;;;;;;;;;12.10;99.90;;;;;;5061317;28;19932;-65
2023/04/28 10:24:45;;;;;;;;;;;12.10;99.90;;;;;;5044823;28;19928;-65
2023/04/28 10:27:17;;;;;;;;;;;12.10;99.90;;;;;;5050194;28;19971;-64
2023/04/28 10:29:49;;;;;;;;;;;12.20;99.90;;;;;;5052015;28;19975;-65
2023/04/28 10:32:24;;;;;;;;;;;12.20;99.90;;;;;;5044449;28;19978;-65
2023/04/28 10:35:16;;;;;;;;;;;12.30;99.90;;;;;;5060842;28;19932;-65
2023/04/28 10:38:02;;;;;;;;;;;12.30;99.90;;;;;;5061562;28;19932;-64
2023/04/28 10:40:38;;;;;;;;;;;12.30;99.90;;;;;;5058038;28;20383;-66
2023/04/28 10:43:10;;;;;;;;;;;12.30;99.90;;;;;;5037877;28;19932;-66
2023/04/28 10:45:51;;;;;;;;;;;12.30;99.90;;;;;;5051968;28;19924;-66
2023/04/28 10:48:43;;;;;;;;;;;12.30;99.90;;;;;;5061937;28;19932;-66
2023/04/28 10:51:15;;;;;;;;;;;12.40;99.90;;;;;;5054646;28;19932;-66
2023/04/28 10:53:53;;;;;;;;;;;12.50;99.90;;;;;;5051799;28;19940;-66
2023/04/28 10:56:25;;;;;;;;;;;12.70;99.90;;;;;;5063288;28;19933;-66
2023/04/28 10:58:57;;;;;;;;;;;12.80;99.90;;;;;;5041369;28;19971;-66
2023/04/28 11:01:31;;;;;;;;;;;12.90;99.90;;;;;;5062745;28;20454;-66
2023/04/28 11:04:09;;;;;;;;;;;13.00;99.90;;;;;;5040517;28;19925;-66
2023/04/28 11:06:44;;;;;;;;;;;13.10;99.90;;;;;;5043765;28;19974;-66
2023/04/28 11:09:19;;;;;;;;;;;13.20;99.90;;;;;;5052269;28;19924;-66
2023/04/28 11:12:09;;;;;;;;;;;13.20;99.90;;;;;;5057713;28;20400;-66
2023/04/28 11:14:41;;;;;;;;;;;13.20;99.90;;;;;;5052482;28;19970;-66
2023/04/28 11:17:15;;;;;;;;;;;13.20;99.90;;;;;;5064813;28;19929;-66
2023/04/28 11:19:50;;;;;;;;;;;13.20;99.90;;;;;;5062873;28;20585;-66
2023/04/28 11:22:22;;;;;;;;;;;13.20;99.90;;;;;;5034763;28;19978;-67
2023/04/28 11:25:02;;;;;;;;;;;13.20;99.90;;;;;;5058810;28;19933;-66
2023/04/28 11:27:33;;;;;;;;;;;13.20;99.90;;;;;;5055333;28;19925;-66
2023/04/28 11:30:18;;;;;;;;;;;13.30;99.90;;;;;;5054274;28;19932;-66
2023/04/28 11:32:48;;;;;;;;;;;13.30;99.90;;;;;;5065577;28;20309;-66
2023/04/28 11:35:15;;;;;;;;;;;13.30;99.90;;;;;;5063558;28;19931;-66
2023/04/28 11:38:00;;;;;;;;;;;13.20;99.90;;;;;;5071054;28;19929;-66
2023/04/28 11:40:27;;;;;;;;;;;13.30;99.90;;;;;;5062710;28;19939;-66
2023/04/28 11:43:00;;;;;;;;;;;13.30;99.90;;;;;;5046388;28;19928;-65
2023/04/28 11:45:26;;;;;;;;;;;13.40;99.90;;;;;;5045596;28;19929;-65
2023/04/28 11:47:53;;;;;;;;;;;13.40;99.90;;;;;;5061225;28;20746;-65
2023/04/28 11:50:34;;;;;;;;;;;13.50;99.90;;;;;;5055216;28;20440;-65
2023/04/28 11:53:06;;;;;;;;;;;13.50;99.90;;;;;;5058921;28;19928;-66
2023/04/28 11:55:38;;;;;;;;;;;13.70;99.90;;;;;;5042063;28;19928;-66
2023/04/28 11:58:16;;;;;;;;;;;13.80;99.90;;;;;;5055978;28;19981;-66
2023/04/28 12:01:06;;;;;;;;;;;13.90;99.90;;;;;;5056972;28;19966;-65
2023/04/28 12:03:44;;;;;;;;;;;14.00;99.90;;;;;;5058929;28;19932;-66
2023/04/28 12:06:19;;;;;;;;;;;14.30;99.90;;;;;;5059487;28;20003;-65
2023/04/28 12:08:51;;;;;;;;;;;14.50;99.90;;;;;;5041258;28;20361;-65
2023/04/28 12:11:23;;;;;;;;;;;14.60;99.90;;;;;;5061181;28;19924;-66
2023/04/28 12:14:03;;;;;;;;;;;14.60;99.90;;;;;;5066430;28;19934;-65
2023/04/28 12:16:38;;;;;;;;;;;14.70;99.90;;;;;;5062538;28;19982;-65
2023/04/28 12:19:11;;;;;;;;;;;14.70;99.90;;;;;;5038860;28;19951;-66
2023/04/28 12:21:43;;;;;;;;;;;14.80;99.90;;;;;;5057709;28;19998;-66
2023/04/28 12:24:19;;;;;;;;;;;14.60;99.90;;;;;;5062307;28;20087;-65
2023/04/28 12:26:51;;;;;;;;;;;14.50;99.90;;;;;;5057266;28;19947;-66
2023/04/28 12:29:38;;;;;;;;;;;14.40;99.90;;;;;;5060489;28;20148;-66
2023/04/28 12:32:10;;;;;;;;;;;14.40;99.90;;;;;;5063704;28;19928;-65
2023/04/28 12:34:38;;;;;;;;;;;14.40;99.90;;;;;;5065797;28;19931;-65
2023/04/28 12:37:05;;;;;;;;;;;14.40;99.90;;;;;;5060665;28;19928;-66
2023/04/28 12:39:38;;;;;;;;;;;14.40;99.90;;;;;;5041082;28;20518;-65
2023/04/28 12:42:10;;;;;;;;;;;14.60;99.90;;;;;;5058916;28;20455;-65
2023/04/28 12:44:42;;;;;;;;;;;14.70;99.90;;;;;;5058128;28;19998;-65
2023/04/28 12:47:14;;;;;;;;;;;14.70;99.90;;;;;;5038915;28;20360;-66
2023/04/28 12:49:47;;;;;;;;;;;14.70;99.90;;;;;;5061289;28;19975;-65
2023/04/28 12:52:14;;;;;;;;;;;14.80;99.90;;;;;;5048415;28;20387;-65
2023/04/28 12:54:46;;;;;;;;;;;14.80;99.90;;;;;;5050039;28;19932;-63
2023/04/28 12:57:18;;;;;;;;;;;14.90;99.90;;;;;;5064596;28;19928;-62
2023/04/28 12:59:51;;;;;;;;;;;14.90;99.90;;;;;;5060109;28;19928;-62
2023/04/28 13:02:23;;;;;;;;;;;15.00;99.90;;;;;;5045552;28;19925;-62
2023/04/28 13:04:55;;;;;;;;;;;15.30;99.90;;;;;;5045033;28;19929;-64
2023/04/28 13:07:27;;;;;;;;;;;15.30;99.90;;;;;;5061923;28;20358;-63
2023/04/28 13:09:59;;;;;;;;;;;15.30;99.90;;;;;;5045924;28;20028;-63
2023/04/28 13:12:32;;;;;;;;;;;15.30;99.90;;;;;;5063270;28;20736;-63
2023/04/28 13:15:04;;;;;;;;;;;15.10;99.90;;;;;;5061533;28;20447;-63
2023/04/28 13:17:36;;;;;;;;;;;15.10;99.90;;;;;;5065355;28;19954;-63
2023/04/28 13:20:08;;;;;;;;;;;15.00;99.90;;;;;;5065415;28;19982;-64
2023/04/28 13:22:40;;;;;;;;;;;14.90;99.90;;;;;;5067358;28;19940;-64
2023/04/28 13:25:12;;;;;;;;;;;14.90;99.90;;;;;;5060977;28;19933;-64
2023/04/28 13:27:43;;;;;;;;;;;14.90;99.90;;;;;;5055604;28;19982;-64
2023/04/28 13:30:10;;;;;;;;;;;14.90;99.90;;;;;;5054345;28;19933;-64
2023/04/28 13:32:42;;;;;;;;;;;15.00;99.90;;;;;;5061160;28;19960;-63
2023/04/28 13:35:13;;;;;;;;;;;15.00;99.90;;;;;;5042928;28;19932;-63
2023/04/28 13:37:45;;;;;;;;;;;15.00;99.90;;;;;;5063895;28;19956;-64
2023/04/28 13:40:18;;;;;;;;;;;15.00;99.90;;;;;;5062216;28;19928;-63
2023/04/28 13:42:45;;;;;;;;;;;15.00;99.90;;;;;;5063856;28;19998;-65
2023/04/28 13:45:12;;;;;;;;;;;15.00;99.90;;;;;;5060894;28;20457;-63
2023/04/28 13:47:44;;;;;;;;;;;15.10;99.90;;;;;;5042166;28;19928;-63
2023/04/28 13:50:16;;;;;;;;;;;15.30;99.90;;;;;;5033952;28;19936;-64
2023/04/28 13:52:48;;;;;;;;;;;15.60;99.90;;;;;;5056895;28;20408;-64
2023/04/28 13:55:26;;;;;;;;;;;15.80;99.90;;;;;;5057459;28;20301;-63
2023/04/28 13:58:01;;;;;;;;;;;16.10;99.90;;;;;;5062122;28;19925;-63
2023/04/28 14:00:33;;;;;;;;;;;16.10;99.90;;;;;;5055534;28;19970;-65
2023/04/28 14:03:05;;;;;;;;;;;16.00;99.90;;;;;;5045110;28;19928;-64
2023/04/28 14:05:37;;;;;;;;;;;16.10;99.90;;;;;;5060998;28;20296;-64
2023/04/28 14:08:09;;;;;;;;;;;16.00;99.90;;;;;;5042583;28;19925;-66
2023/04/28 14:10:40;;;;;;;;;;;16.00;99.90;;;;;;5042268;28;19924;-67
2023/04/28 14:13:12;;;;;;;;;;;15.90;99.90;;;;;;5054279;28;20069;-63
2023/04/28 14:15:44;;;;;;;;;;;15.80;99.90;;;;;;5056625;28;19932;-64
2023/04/28 14:18:12;;;;;;;;;;;15.70;99.90;;;;;;5062620;28;19978;-63
2023/04/28 14:20:38;;;;;;;;;;;15.70;99.90;;;;;;5057883;28;19928;-64
2023/04/28 14:23:10;;;;;;;;;;;15.70;99.90;;;;;;5047281;28;19983;-62
2023/04/28 14:25:42;;;;;;;;;;;15.70;99.90;;;;;;5063221;28;19978;-63
2023/04/28 14:28:15;;;;;;;;;;;15.60;99.90;;;;;;5061311;28;19925;-63
2023/04/28 14:30:46;;;;;;;;;;;15.50;99.90;;;;;;5060309;28;20297;-65
2023/04/28 14:33:18;;;;;;;;;;;15.50;99.90;;;;;;5038309;28;20432;-65
2023/04/28 14:35:50;;;;;;;;;;;15.40;99.90;;;;;;5043061;28;19955;-66
2023/04/28 14:38:22;;;;;;;;;;;15.30;99.90;;;;;;5044134;28;19971;-65
2023/04/28 14:40:53;;;;;;;;;;;15.20;99.90;;;;;;5055990;28;19925;-65
2023/04/28 14:43:25;;;;;;;;;;;15.20;99.90;;;;;;5044155;28;19943;-65
2023/04/28 14:45:57;;;;;;;;;;;15.30;99.90;;;;;;5060745;28;19932;-65
2023/04/28 14:48:31;;;;;;;;;;;15.30;99.90;;;;;;5057414;28;20401;-65
2023/04/28 14:51:02;;;;;;;;;;;15.30;99.90;;;;;;5060673;28;19924;-66
2023/04/28 14:53:34;;;;;;;;;;;15.30;99.90;;;;;;5043044;28;20377;-65
2023/04/28 14:56:07;;;;;;;;;;;15.30;99.90;;;;;;5054481;28;19925;-65